USCGC Polar Star — NBTM — position and weather

sailwx.info

Track history (hours):
 
Tides and Currents Weather Stations Pressure Air Temp Water Temp Dewpoint Dewpoint Depression Visibility Wind Speed Wind Dir Waves Ship Positions

Oceanographic research ship USCGC Polar Star (USA)

Detailed information on ship capabilities available from University of Delaware's Ocean Information Center and ARCUS's ALIAS (Arctic Logistics Information and Support) project.

Last reported at 2014-Nov-17 03:33 UTC. Time now 2014-Nov-28 09:26 UTC.
Position N 47°35' W 122°21'.
Warning: this ship's position is 11 days out of date.

Type: Military. MMSI: 367255000.

Date/timePositionNaut miles runAvg speedWind from/ knotsBaromVisibWave heightAir tempDewpointWater temp
2014-Nov-17 03:33N 47°35' W 122°21'3 2.7
2014-Nov-17 02:33N 47°36' W 122°24'5 5.1
2014-Nov-17 01:33N 47°34' W 122°32'0 0.0
2014-Nov-16 03:28N 47°34' W 122°32'3 3.6
2014-Nov-16 02:34N 47°35' W 122°28'10 9.8
2014-Nov-16 01:33N 47°45' W 122°27'1211.8
2014-Nov-16 00:33N 47°56' W 122°32'1010.1
2014-Nov-15 23:32N 48°05' W 122°40'9 8.5
2014-Nov-15 22:27N 48°11' W 122°50'1111.4
2014-Nov-15 21:30N 48°12' W 123°07'1112.1
2014-Nov-15 20:34N 48°13' W 123°24'1412.6
2014-Nov-15 19:29N 48°13' W 123°44'1311.9
2014-Nov-15 18:24N 48°16' W 124°03'1113.0
2014-Nov-15 17:33N 48°20' W 124°18'1313.0
2014-Nov-15 16:34N 48°26' W 124°36'1211.8
2014-Nov-15 15:33N 48°29' W 124°53'11 9.8
2014-Nov-15 14:28N 48°20' W 125°03'1313.3
2014-Nov-15 13:29N 48°08' W 125°00'5413.1
2014-Nov-15 09:24N 47°16' W 124°38'1113.1
2014-Nov-15 08:33N 47°06' W 124°34'1312.7
2014-Nov-15 07:33N 46°53' W 124°29'1212.1
2014-Nov-15 06:33N 46°41' W 124°26'1212.5
2014-Nov-15 05:34N 46°29' W 124°22'1313.0
2014-Nov-15 04:33N 46°16' W 124°19'1312.5
2014-Nov-15 03:33N 46°04' W 124°17'1514.7
2014-Nov-15 02:33N 45°49' W 124°16'1615.5
2014-Nov-15 01:33N 45°34' W 124°14'1312.8
2014-Nov-15 00:33N 45°21' W 124°18'40010.8
2014-Nov-13 11:32N 38°42' W 123°40'1717.5
2014-Nov-13 10:34N 38°27' W 123°28'1716.9
2014-Nov-13 09:33N 38°14' W 123°16'3 2.8
2014-Nov-13 08:33N 38°11' W 123°15'4 4.5
2014-Nov-13 07:33N 38°07' W 123°12'1514.7
2014-Nov-13 06:33N 37°55' W 123°01'1716.8
2014-Nov-13 05:33N 37°47' W 122°43'1313.5
2014-Nov-13 04:33N 37°50' W 122°26'5 4.8
2014-Nov-13 03:31N 37°47' W 122°21'0 0.0
2014-Nov-13 02:31N 37°47' W 122°21'0 0.0
2014-Nov-13 01:28N 37°47' W 122°21'0 0.0
2014-Nov-13 00:31N 37°47' W 122°21'0 0.0
2014-Nov-12 23:31N 37°47' W 122°21'0 0.0
2014-Nov-12 22:31N 37°47' W 122°21'0 0.0
2014-Nov-12 21:31N 37°47' W 122°21'0 0.0
2014-Nov-12 20:34N 37°47' W 122°21'0 0.0
2014-Nov-12 19:31N 37°47' W 122°21'0 0.1
2014-Nov-12 18:31N 37°47' W 122°21'0 0.1
2014-Nov-12 17:31N 37°47' W 122°21'0 0.0
2014-Nov-12 16:31N 37°47' W 122°21'0 0.0
2014-Nov-12 15:31N 37°47' W 122°21'0 0.0
2014-Nov-12 14:31N 37°47' W 122°21'0 0.0
2014-Nov-12 13:31N 37°47' W 122°21'0 0.0
2014-Nov-12 12:31N 37°47' W 122°21'0 0.0
2014-Nov-12 11:31N 37°47' W 122°21'0 0.1
2014-Nov-12 10:32N 37°47' W 122°21'0 0.0
2014-Nov-12 09:28N 37°47' W 122°21'0 0.0
2014-Nov-12 08:31N 37°47' W 122°21'0 0.0
2014-Nov-12 07:33N 37°47' W 122°21'0 0.0
2014-Nov-12 06:33N 37°47' W 122°21'0 0.0
2014-Nov-12 05:33N 37°47' W 122°21'0 0.0
2014-Nov-12 04:33N 37°47' W 122°21'1 0.7
2014-Nov-12 03:33N 37°48' W 122°22'7 7.1
2014-Nov-12 02:33N 37°54' W 122°26'9 8.5
2014-Nov-12 01:33N 38°02' W 122°22'7 6.6
2014-Nov-12 00:32N 38°05' W 122°15'1 1.4
2014-Nov-11 23:33N 38°06' W 122°16'0 0.0
2014-Nov-11 22:24N 38°06' W 122°16'0 0.0
2014-Nov-11 21:05N 38°06' W 122°16'0 0.0
2014-Nov-11 20:11N 38°06' W 122°16'0 0.0
2014-Nov-11 19:23N 38°06' W 122°16'  
Track history (hours):
 
Tides and Currents Weather Stations Pressure Air Temp Water Temp Dewpoint Dewpoint Depression Visibility Wind Speed Wind Dir Waves Ship Positions

Oceanographic research ship USCGC Polar Star (USA)

Detailed information on ship capabilities available from University of Delaware's Ocean Information Center and ARCUS's ALIAS (Arctic Logistics Information and Support) project.

Last reported at 2014-Nov-17 03:33 UTC. Time now 2014-Nov-28 09:26 UTC.
Position N 47°35' W 122°21'.
Warning: this ship's position is 11 days out of date.

Type: Military. MMSI: 367255000.

Date/timePositionNaut miles runAvg speedWind from/ knotsBaromVisibWave heightAir tempDewpointWater temp
2014-Nov-17 03:33N 47°35' W 122°21'3 2.7
2014-Nov-17 02:33N 47°36' W 122°24'5 5.1
2014-Nov-17 01:33N 47°34' W 122°32'0 0.0
2014-Nov-16 03:28N 47°34' W 122°32'3 3.6
2014-Nov-16 02:34N 47°35' W 122°28'10 9.8
2014-Nov-16 01:33N 47°45' W 122°27'1211.8
2014-Nov-16 00:33N 47°56' W 122°32'1010.1
2014-Nov-15 23:32N 48°05' W 122°40'9 8.5
2014-Nov-15 22:27N 48°11' W 122°50'1111.4
2014-Nov-15 21:30N 48°12' W 123°07'1112.1
2014-Nov-15 20:34N 48°13' W 123°24'1412.6
2014-Nov-15 19:29N 48°13' W 123°44'1311.9
2014-Nov-15 18:24N 48°16' W 124°03'1113.0
2014-Nov-15 17:33N 48°20' W 124°18'1313.0
2014-Nov-15 16:34N 48°26' W 124°36'1211.8
2014-Nov-15 15:33N 48°29' W 124°53'11 9.8
2014-Nov-15 14:28N 48°20' W 125°03'1313.3
2014-Nov-15 13:29N 48°08' W 125°00'5413.1
2014-Nov-15 09:24N 47°16' W 124°38'1113.1
2014-Nov-15 08:33N 47°06' W 124°34'1312.7
2014-Nov-15 07:33N 46°53' W 124°29'1212.1
2014-Nov-15 06:33N 46°41' W 124°26'1212.5
2014-Nov-15 05:34N 46°29' W 124°22'1313.0
2014-Nov-15 04:33N 46°16' W 124°19'1312.5
2014-Nov-15 03:33N 46°04' W 124°17'1514.7
2014-Nov-15 02:33N 45°49' W 124°16'1615.5
2014-Nov-15 01:33N 45°34' W 124°14'1312.8
2014-Nov-15 00:33N 45°21' W 124°18'40010.8
2014-Nov-13 11:32N 38°42' W 123°40'1717.5
2014-Nov-13 10:34N 38°27' W 123°28'1716.9
2014-Nov-13 09:33N 38°14' W 123°16'3 2.8
2014-Nov-13 08:33N 38°11' W 123°15'4 4.5
2014-Nov-13 07:33N 38°07' W 123°12'1514.7
2014-Nov-13 06:33N 37°55' W 123°01'1716.8
2014-Nov-13 05:33N 37°47' W 122°43'1313.5
2014-Nov-13 04:33N 37°50' W 122°26'5 4.8
2014-Nov-13 03:31N 37°47' W 122°21'0 0.0
2014-Nov-13 02:31N 37°47' W 122°21'0 0.0
2014-Nov-13 01:28N 37°47' W 122°21'0 0.0
2014-Nov-13 00:31N 37°47' W 122°21'0 0.0
2014-Nov-12 23:31N 37°47' W 122°21'0 0.0
2014-Nov-12 22:31N 37°47' W 122°21'0 0.0
2014-Nov-12 21:31N 37°47' W 122°21'0 0.0
2014-Nov-12 20:34N 37°47' W 122°21'0 0.0
2014-Nov-12 19:31N 37°47' W 122°21'0 0.1
2014-Nov-12 18:31N 37°47' W 122°21'0 0.1
2014-Nov-12 17:31N 37°47' W 122°21'0 0.0
2014-Nov-12 16:31N 37°47' W 122°21'0 0.0
2014-Nov-12 15:31N 37°47' W 122°21'0 0.0
2014-Nov-12 14:31N 37°47' W 122°21'0 0.0
2014-Nov-12 13:31N 37°47' W 122°21'0 0.0
2014-Nov-12 12:31N 37°47' W 122°21'0 0.0
2014-Nov-12 11:31N 37°47' W 122°21'0 0.1
2014-Nov-12 10:32N 37°47' W 122°21'0 0.0
2014-Nov-12 09:28N 37°47' W 122°21'0 0.0
2014-Nov-12 08:31N 37°47' W 122°21'0 0.0
2014-Nov-12 07:33N 37°47' W 122°21'0 0.0
2014-Nov-12 06:33N 37°47' W 122°21'0 0.0
2014-Nov-12 05:33N 37°47' W 122°21'0 0.0
2014-Nov-12 04:33N 37°47' W 122°21'1 0.7
2014-Nov-12 03:33N 37°48' W 122°22'7 7.1
2014-Nov-12 02:33N 37°54' W 122°26'9 8.5
2014-Nov-12 01:33N 38°02' W 122°22'7 6.6
2014-Nov-12 00:32N 38°05' W 122°15'1 1.4
2014-Nov-11 23:33N 38°06' W 122°16'0 0.0
2014-Nov-11 22:24N 38°06' W 122°16'0 0.0
2014-Nov-11 21:05N 38°06' W 122°16'0 0.0
2014-Nov-11 20:11N 38°06' W 122°16'0 0.0
2014-Nov-11 19:23N 38°06' W 122°16'  

Dump ship's entire track history